Port Alsworth, AK

3:51 PM AKDT on August 03, 2015 (GMT -0800)
Port Alsworth | | Change Station
CLOSE
Current Station
Airport
Location: Port Alsworth,
Elevation: 279 ft
Nearby Weather Stations

Elev 279 ft 60.20 °N, 154.32 °W | Updated 54 minutes ago

Partly Cloudy
Partly Cloudy
81 °F
Feels Like 82 °F
N
8
Wind Variable Wind from SW

Today
High -- | Low -- °F
--% Chance of Precip.
Yesterday
High -- | Low -- °F
Precip. -- in
6:01 AM 10:43 PM
Waning Gibbous, 83% visible
Pressure 30.05 in
Visibility 40.0 miles
Clouds Few 15000 ft
Heat Index 82 °F
Dew Point 61 °F
Humidity 51%
Rainfall 0.00 in
Snow Depth Not available.
UV 6 out of 12
Pollen Not available.
Air Quality Not available.
Flu Activity Not available.
METAR PALJ 032257Z 22007KT 40SM FEW150 27/16 A3005 RMK EST PASS OPEN NOSPECI

More Conditions Fewer Conditions

Pressure 30.05 in
Visibility 40.0 miles
Clouds Few 15000 ft
Heat Index 82 °F
Dew Point 61 °F
Humidity 51%
Rainfall 0.00 in
Snow Depth Not available.
UV 6 out of 12
Pollen Not available.
Air Quality Not available.
Flu Activity Not available.
METAR PALJ 032257Z 22007KT 40SM FEW150 27/16 A3005 RMK EST PASS OPEN NOSPECI

More Conditions Fewer Conditions

10-Day Weather Forecast

×

Almanac

Astronomy

Aug. 03, 2015 Rise Set
Actual Time
Civil Twilight
Nautical Twilight
Astronomical Twilight
Moon
Length of Visible Light
Length of Day
Tomorrow will be .
, % of the Moon is Illuminated

Today's Extremes

State Highs State Lows

Community

WunderPhotos

Upload Photos

1,843,791 photos uploaded!

WunderBlogs® & News

Nearby

Air Quality

  Air Quality AQ Index Pollutant
Not available.

Snow Depth

Station Depth Elevation

Earthquake Activity

City Distance Mag. Time & Date
Minimum magnitude displayed is 2.5.

Coastal Water Temperatures

Place Temperature

Stations

Nearby Weather Stations

Station Location Temp. Windchill Dew Point Humidity Wind Precip. Elev Updated Type